createdAt,value
2017-07-20T00:00:42.439Z,99.70
2017-07-20T00:03:09.934Z,99.90
2017-07-20T00:05:37.469Z,99.60
2017-07-20T00:08:05.000Z,99.80
2017-07-20T00:10:32.506Z,99.80
2017-07-20T00:12:59.994Z,99.80
2017-07-20T00:15:27.542Z,99.90
2017-07-20T00:17:55.041Z,99.90
2017-07-20T00:20:22.546Z,99.90
2017-07-20T00:22:50.058Z,99.50
2017-07-20T00:25:17.565Z,99.20
2017-07-20T00:27:45.089Z,99.20
2017-07-20T00:30:12.603Z,99.10
2017-07-20T00:32:40.138Z,99.00
2017-07-20T00:35:07.646Z,99.00
2017-07-20T00:37:35.951Z,98.80
2017-07-20T00:40:04.241Z,98.90
2017-07-20T00:42:32.493Z,99.20
2017-07-20T00:45:00.012Z,99.10
2017-07-20T00:47:27.519Z,98.70
2017-07-20T00:49:55.818Z,99.00
2017-07-20T00:52:23.323Z,98.50
2017-07-20T00:54:50.946Z,98.70
2017-07-20T00:57:18.476Z,98.60
2017-07-20T00:59:46.784Z,98.70
2017-07-20T01:02:14.299Z,98.70
2017-07-20T01:04:41.844Z,98.60
2017-07-20T01:07:09.348Z,98.50
2017-07-20T01:09:37.602Z,99.10
2017-07-20T01:12:05.121Z,99.10
2017-07-20T01:14:32.641Z,99.10
2017-07-20T01:17:00.137Z,98.60
2017-07-20T01:19:27.643Z,97.90
2017-07-20T01:21:55.159Z,97.40
2017-07-20T01:24:22.891Z,97.70
2017-07-20T01:26:50.383Z,96.60
2017-07-20T01:29:17.919Z,96.50
2017-07-20T01:31:45.553Z,96.20
2017-07-20T01:34:13.807Z,97.10
2017-07-20T01:36:41.337Z,97.10
2017-07-20T01:39:08.860Z,97.30
2017-07-20T01:41:36.415Z,97.90
2017-07-20T01:44:04.679Z,98.30
2017-07-20T01:46:32.171Z,98.30
2017-07-20T01:48:59.691Z,98.00
2017-07-20T01:51:27.189Z,98.20
2017-07-20T01:53:54.696Z,98.10
2017-07-20T01:56:22.199Z,98.10
2017-07-20T01:58:49.709Z,97.70
2017-07-20T02:01:17.239Z,98.10
2017-07-20T02:03:44.721Z,97.80
2017-07-20T02:06:12.216Z,97.90
2017-07-20T02:08:41.463Z,98.70
2017-07-20T02:11:08.963Z,98.60
2017-07-20T02:13:36.475Z,98.10
2017-07-20T02:16:03.997Z,97.50
2017-07-20T02:18:31.505Z,97.00
2017-07-20T02:20:59.035Z,97.00
2017-07-20T02:23:26.532Z,97.10
2017-07-20T02:25:54.026Z,97.50
2017-07-20T02:28:22.293Z,97.40
2017-07-20T02:30:49.812Z,97.30
2017-07-20T02:33:17.317Z,98.40
2017-07-20T02:35:44.811Z,99.10
2017-07-20T02:38:12.318Z,98.80
2017-07-20T02:40:39.800Z,97.90
2017-07-20T02:43:07.306Z,97.80
2017-07-20T02:45:34.804Z,98.10
2017-07-20T02:48:02.321Z,99.00
2017-07-20T02:50:29.818Z,99.70
2017-07-20T02:52:57.317Z,99.90
2017-07-20T02:55:24.849Z,99.80
2017-07-20T02:57:52.346Z,98.60
2017-07-20T03:00:19.855Z,98.60
2017-07-20T03:02:47.362Z,99.00
2017-07-20T03:05:14.862Z,98.90
2017-07-20T03:07:42.378Z,99.10
2017-07-20T03:10:09.914Z,99.20
2017-07-20T03:12:38.178Z,99.40
2017-07-20T03:15:05.801Z,99.40
2017-07-20T03:17:33.308Z,99.30
2017-07-20T03:20:00.833Z,97.70
2017-07-20T03:22:40.190Z,97.40
2017-07-20T03:25:07.696Z,97.80
2017-07-20T03:27:35.211Z,98.00
2017-07-20T03:30:02.718Z,97.30
2017-07-20T03:32:30.209Z,97.90
2017-07-20T03:34:57.726Z,98.20
2017-07-20T03:37:25.260Z,97.90
2017-07-20T03:39:52.823Z,98.10
2017-07-20T03:42:21.091Z,98.10
2017-07-20T03:44:49.351Z,98.50
2017-07-20T03:47:16.873Z,98.50
2017-07-20T03:49:44.384Z,99.00
2017-07-20T03:52:11.900Z,99.00
2017-07-20T03:54:39.430Z,98.60
2017-07-20T03:57:06.920Z,98.00
2017-07-20T03:59:34.447Z,98.00
2017-07-20T04:02:02.294Z,98.00
2017-07-20T04:04:29.814Z,98.70
2017-07-20T04:06:57.332Z,98.90
2017-07-20T04:09:24.872Z,98.70
2017-07-20T04:11:52.397Z,98.50
2017-07-20T04:14:19.923Z,98.50
2017-07-20T04:16:47.425Z,98.40
2017-07-20T04:19:14.931Z,98.50
2017-07-20T04:21:42.468Z,98.50
2017-07-20T04:24:10.770Z,98.50
2017-07-20T04:26:38.317Z,98.50
2017-07-20T04:29:05.838Z,97.50
2017-07-20T04:31:33.370Z,98.20
2017-07-20T04:34:00.877Z,99.20
2017-07-20T04:36:28.410Z,98.10
2017-07-20T04:38:55.912Z,98.00
2017-07-20T04:41:24.201Z,98.10
2017-07-20T04:43:51.718Z,98.00
2017-07-20T04:46:19.239Z,98.30
2017-07-20T04:48:46.755Z,98.40
2017-07-20T04:51:15.062Z,98.80
2017-07-20T04:53:42.571Z,98.80
2017-07-20T04:56:10.076Z,98.70
2017-07-20T04:58:37.693Z,98.90
2017-07-20T05:01:05.199Z,98.90
2017-07-20T05:03:32.734Z,98.70
2017-07-20T05:06:01.059Z,98.30
2017-07-20T05:08:28.566Z,98.30
2017-07-20T05:10:56.060Z,98.40
2017-07-20T05:13:23.606Z,98.40
2017-07-20T05:15:51.162Z,98.40
2017-07-20T05:18:18.693Z,98.10
2017-07-20T05:20:46.210Z,98.00
2017-07-20T05:23:13.706Z,98.00
2017-07-20T05:25:41.241Z,98.00
2017-07-20T05:28:08.759Z,98.10
2017-07-20T05:30:37.045Z,97.70
2017-07-20T05:33:04.557Z,97.70
2017-07-20T05:35:32.049Z,97.70
2017-07-20T05:37:59.592Z,97.50
2017-07-20T05:40:27.886Z,97.90
2017-07-20T05:42:56.162Z,97.90
2017-07-20T05:45:23.710Z,97.90
2017-07-20T05:47:51.415Z,98.00
2017-07-20T05:50:18.939Z,98.00
2017-07-20T05:52:47.211Z,97.50
2017-07-20T05:55:15.509Z,97.50
2017-07-20T05:57:43.061Z,97.50
2017-07-20T06:00:10.592Z,97.60
2017-07-20T06:02:38.100Z,97.60
2017-07-20T06:05:05.697Z,97.70
2017-07-20T06:07:33.262Z,97.00
2017-07-20T06:10:00.770Z,97.00
2017-07-20T06:12:28.306Z,96.80
2017-07-20T06:14:56.598Z,96.60
2017-07-20T06:17:24.911Z,96.90
2017-07-20T06:19:52.546Z,96.50
2017-07-20T06:22:20.101Z,96.30
2017-07-20T06:24:47.634Z,96.10
2017-07-20T06:27:15.203Z,96.10
2017-07-20T06:29:42.721Z,96.10
2017-07-20T06:32:12.089Z,96.00
2017-07-20T06:34:39.597Z,95.50
2017-07-20T06:37:07.140Z,95.60
2017-07-20T06:39:34.662Z,95.70
2017-07-20T06:42:02.157Z,95.50
2017-07-20T06:44:29.671Z,95.60
2017-07-20T06:46:57.189Z,95.60
2017-07-20T06:49:24.680Z,95.60
2017-07-20T06:51:52.240Z,95.40
2017-07-20T06:54:19.790Z,94.80
2017-07-20T06:56:47.282Z,94.80
2017-07-20T06:59:14.808Z,94.90
2017-07-20T07:01:42.332Z,94.50
2017-07-20T07:04:09.831Z,94.50
2017-07-20T07:06:37.355Z,93.90
2017-07-20T07:09:05.021Z,93.70
2017-07-20T07:11:32.520Z,93.50
2017-07-20T07:14:00.036Z,93.60
2017-07-20T07:16:27.534Z,93.60
2017-07-20T07:18:56.160Z,93.00
2017-07-20T07:21:23.981Z,92.80
2017-07-20T07:23:51.503Z,92.90
2017-07-20T07:26:19.018Z,92.60
2017-07-20T07:28:46.522Z,92.40
2017-07-20T07:31:14.047Z,92.30
2017-07-20T07:33:41.567Z,91.90
2017-07-20T07:36:09.168Z,91.50
2017-07-20T07:38:36.696Z,91.70
2017-07-20T07:41:04.377Z,91.00
2017-07-20T07:43:32.643Z,91.00
2017-07-20T07:46:00.928Z,91.50
2017-07-20T07:48:29.192Z,91.50
2017-07-20T07:50:57.458Z,90.40
2017-07-20T07:53:25.081Z,90.50
2017-07-20T07:55:52.628Z,86.30
2017-07-20T07:58:20.176Z,84.90
2017-07-20T08:00:47.704Z,85.20
2017-07-20T08:03:15.216Z,85.00
2017-07-20T08:05:42.713Z,84.40
2017-07-20T08:08:10.314Z,83.80
2017-07-20T08:10:37.832Z,84.50
2017-07-20T08:13:05.416Z,82.60
2017-07-20T08:15:33.695Z,82.70
2017-07-20T08:18:01.989Z,82.90
2017-07-20T08:20:29.496Z,82.80
2017-07-20T08:22:57.004Z,83.30
2017-07-20T08:25:24.513Z,83.50
2017-07-20T08:27:52.031Z,84.00
2017-07-20T08:30:19.588Z,82.80
2017-07-20T08:32:47.094Z,82.10
2017-07-20T08:35:14.596Z,80.30
2017-07-20T08:37:42.133Z,79.30
2017-07-20T08:40:09.673Z,80.10
2017-07-20T08:42:37.187Z,80.70
2017-07-20T08:45:04.734Z,80.90
2017-07-20T08:47:32.269Z,80.20
2017-07-20T08:50:00.824Z,79.10
2017-07-20T08:52:28.330Z,79.00
2017-07-20T08:54:55.865Z,78.60
2017-07-20T08:57:23.369Z,77.40
2017-07-20T08:59:50.904Z,78.40
2017-07-20T09:02:18.433Z,78.90
2017-07-20T09:04:45.943Z,78.60
2017-07-20T09:07:13.462Z,78.80
2017-07-20T09:09:40.969Z,79.00
2017-07-20T09:12:08.495Z,78.50
2017-07-20T09:14:36.002Z,77.10
2017-07-20T09:17:03.506Z,77.20
2017-07-20T09:19:31.028Z,75.90
2017-07-20T09:21:58.537Z,73.80
2017-07-20T09:24:28.114Z,72.50
2017-07-20T09:26:55.591Z,72.00
2017-07-20T09:29:23.116Z,72.10
2017-07-20T09:31:50.623Z,69.70
2017-07-20T09:34:18.154Z,68.50
2017-07-20T09:36:45.664Z,68.00
2017-07-20T09:39:13.195Z,68.20
2017-07-20T09:41:41.505Z,69.50
2017-07-20T09:44:09.015Z,69.40
2017-07-20T09:46:36.577Z,71.00
2017-07-20T09:49:04.160Z,69.60
2017-07-20T09:51:31.713Z,67.70
2017-07-20T09:53:59.261Z,67.90
2017-07-20T09:56:26.821Z,67.70
2017-07-20T09:58:54.377Z,66.40
2017-07-20T10:01:21.924Z,65.80
2017-07-20T10:03:49.480Z,65.40
2017-07-20T10:06:17.130Z,65.50
2017-07-20T10:08:44.681Z,65.30
2017-07-20T10:11:12.249Z,64.70
2017-07-20T10:13:39.792Z,64.80
2017-07-20T10:16:07.373Z,65.00
2017-07-20T10:18:35.142Z,65.60
2017-07-20T10:21:02.778Z,65.50
2017-07-20T10:23:30.286Z,64.10
2017-07-20T10:25:57.847Z,63.00
2017-07-20T10:28:25.325Z,63.40
2017-07-20T10:30:52.864Z,61.10
2017-07-20T10:33:20.393Z,60.40
2017-07-20T10:53:08.240Z,50.60
2017-07-20T10:55:35.775Z,45.50
2017-07-20T10:58:03.319Z,43.80
2017-07-20T11:00:31.587Z,42.50
2017-07-20T11:02:59.935Z,42.00
2017-07-20T11:05:27.462Z,41.90
2017-07-20T11:07:54.979Z,42.00
2017-07-20T11:10:22.538Z,42.90
2017-07-20T11:12:51.875Z,43.30
2017-07-20T11:15:19.422Z,41.40
2017-07-20T11:17:47.731Z,38.40
2017-07-20T11:20:15.421Z,38.30
2017-07-20T11:22:42.953Z,39.30
2017-07-20T11:25:10.477Z,40.80
2017-07-20T11:27:38.750Z,41.20
2017-07-20T11:30:07.045Z,39.70
2017-07-20T11:32:34.640Z,39.70
2017-07-20T11:35:02.207Z,39.90
2017-07-20T11:37:29.737Z,41.60
2017-07-20T11:39:57.239Z,42.60
2017-07-20T11:42:24.730Z,43.40
2017-07-20T11:44:52.258Z,40.30
2017-07-20T11:47:19.778Z,40.00
2017-07-20T11:49:47.310Z,39.30
2017-07-20T11:52:15.589Z,35.00
2017-07-20T11:54:43.867Z,33.90
2017-07-20T11:57:12.128Z,32.00
2017-07-20T11:59:39.646Z,31.90
2017-07-20T12:02:07.144Z,33.00
2017-07-20T12:04:34.700Z,32.60
2017-07-20T12:07:02.313Z,31.90
2017-07-20T12:09:29.804Z,31.50
2017-07-20T12:11:57.405Z,32.90
2017-07-20T12:14:24.902Z,33.50
2017-07-20T12:16:52.424Z,34.40
2017-07-20T12:19:20.216Z,34.40
2017-07-20T12:21:47.729Z,36.70
2017-07-20T12:24:15.226Z,36.40
2017-07-20T12:26:42.823Z,34.60
2017-07-20T12:29:11.681Z,32.80
2017-07-20T12:31:39.177Z,33.20
2017-07-20T12:34:06.973Z,34.20
2017-07-20T12:36:34.470Z,33.60
2017-07-20T12:39:02.916Z,34.10
2017-07-20T12:41:30.427Z,34.20
2017-07-20T12:43:57.950Z,34.00
2017-07-20T12:46:25.449Z,34.70
2017-07-20T12:48:53.057Z,35.20
2017-07-20T12:51:21.369Z,38.50
2017-07-20T12:53:48.904Z,38.40
2017-07-20T12:56:16.428Z,39.00
2017-07-20T12:58:43.990Z,40.00
2017-07-20T13:01:11.523Z,40.80
2017-07-20T13:03:39.020Z,40.40
2017-07-20T13:06:07.285Z,42.50
2017-07-20T13:08:34.804Z,42.20
2017-07-20T13:11:02.368Z,44.30
2017-07-20T13:13:29.893Z,45.60
2017-07-20T13:15:57.409Z,45.90
2017-07-20T13:18:24.987Z,45.80
2017-07-20T13:20:53.255Z,47.40
2017-07-20T13:23:20.772Z,47.30
2017-07-20T13:25:48.834Z,47.00
2017-07-20T13:28:16.612Z,46.70
2017-07-20T13:30:44.126Z,47.10
2017-07-20T13:33:12.405Z,47.50
2017-07-20T13:35:40.732Z,47.00
2017-07-20T13:38:08.242Z,46.40
2017-07-20T13:40:35.744Z,46.10
2017-07-20T13:43:03.258Z,45.70
2017-07-20T13:45:30.766Z,45.60
2017-07-20T13:47:58.279Z,46.00
2017-07-20T13:50:25.782Z,46.20
2017-07-20T13:52:53.315Z,47.10
2017-07-20T13:55:20.820Z,47.70
2017-07-20T13:57:48.391Z,48.90
2017-07-20T14:00:15.953Z,49.80
2017-07-20T14:02:43.492Z,50.10
2017-07-20T14:05:11.008Z,50.20
2017-07-20T14:07:38.626Z,49.90
2017-07-20T14:10:06.135Z,50.30
2017-07-20T14:12:33.690Z,50.80
2017-07-20T14:15:01.339Z,51.20
2017-07-20T14:17:28.945Z,51.90
2017-07-20T14:19:56.491Z,51.40
2017-07-20T14:22:24.042Z,52.10
2017-07-20T14:24:51.607Z,52.50
2017-07-20T14:27:19.118Z,51.10
2017-07-20T14:29:46.646Z,51.60
2017-07-20T14:32:14.204Z,53.00
2017-07-20T14:34:41.720Z,52.90
2017-07-20T14:37:10.005Z,54.60
2017-07-20T14:39:38.612Z,55.80
2017-07-20T14:42:06.229Z,55.20
2017-07-20T14:44:33.747Z,55.80
2017-07-20T14:47:01.344Z,54.70
2017-07-20T14:49:28.847Z,54.70
2017-07-20T14:51:56.351Z,55.00
2017-07-20T14:54:23.893Z,54.90
2017-07-20T14:56:51.434Z,53.90
2017-07-20T14:59:18.944Z,54.30
2017-07-20T15:01:46.445Z,54.30
2017-07-20T15:04:13.975Z,55.20
2017-07-20T15:06:41.543Z,55.70
2017-07-20T15:09:09.820Z,56.70
2017-07-20T15:11:38.088Z,56.90
2017-07-20T15:14:05.608Z,56.80
2017-07-20T15:16:33.165Z,54.70
2017-07-20T15:19:00.682Z,55.00
2017-07-20T15:21:28.955Z,55.40
2017-07-20T15:23:57.309Z,55.10
2017-07-20T15:26:24.946Z,55.00
2017-07-20T15:28:52.472Z,55.50
2017-07-20T15:31:20.048Z,56.30
2017-07-20T15:33:47.561Z,56.70
2017-07-20T15:36:15.055Z,57.00
2017-07-20T15:38:42.625Z,57.40
2017-07-20T15:41:10.142Z,57.40
2017-07-20T15:43:37.644Z,57.40
2017-07-20T15:46:05.148Z,58.30
2017-07-20T15:48:32.695Z,59.00
2017-07-20T15:51:00.217Z,59.50
2017-07-20T15:53:27.747Z,60.50
2017-07-20T15:55:56.014Z,64.10
2017-07-20T15:58:23.588Z,64.00
2017-07-20T16:00:51.094Z,65.90
2017-07-20T16:03:18.600Z,67.80
2017-07-20T16:05:46.112Z,72.60
2017-07-20T16:08:13.609Z,75.70
2017-07-20T16:10:41.122Z,82.50
2017-07-20T16:13:08.619Z,80.10
2017-07-20T16:15:36.124Z,80.30
2017-07-20T16:18:03.984Z,81.70
2017-07-20T16:20:31.483Z,78.90
2017-07-20T16:22:58.984Z,77.40
2017-07-20T16:25:26.540Z,76.90
2017-07-20T16:27:54.832Z,76.90
2017-07-20T16:30:23.145Z,77.60
2017-07-20T16:32:50.658Z,77.60
2017-07-20T16:52:35.510Z,73.80
2017-07-20T16:55:03.057Z,73.40
2017-07-20T16:57:30.579Z,73.10
2017-07-20T16:59:58.101Z,73.60
2017-07-20T17:02:25.781Z,73.40
2017-07-20T17:04:54.083Z,73.00
2017-07-20T17:07:21.585Z,73.00
2017-07-20T17:09:49.127Z,73.50
2017-07-20T17:12:16.646Z,74.00
2017-07-20T17:14:44.958Z,74.70
2017-07-20T17:17:12.471Z,74.70
2017-07-20T17:19:40.018Z,75.00
2017-07-20T17:22:07.551Z,75.40
2017-07-20T17:24:35.135Z,76.00
2017-07-20T17:27:02.714Z,76.10
2017-07-20T17:29:30.246Z,76.10
2017-07-20T17:31:57.802Z,76.10
2017-07-20T17:34:25.293Z,76.40
2017-07-20T17:36:52.844Z,76.40
2017-07-20T17:39:20.402Z,76.30
2017-07-20T17:41:47.983Z,76.30
2017-07-20T17:44:16.271Z,77.10
2017-07-20T17:46:43.898Z,76.90
2017-07-20T17:49:11.403Z,77.50
2017-07-20T17:51:38.910Z,77.70
2017-07-20T17:54:06.402Z,78.00
2017-07-20T17:56:33.914Z,78.30
2017-07-20T17:59:01.453Z,78.70
2017-07-20T18:01:28.983Z,79.10
2017-07-20T18:03:56.524Z,79.10
2017-07-20T18:06:24.816Z,80.80
2017-07-20T18:08:53.104Z,80.20
2017-07-20T18:11:20.683Z,80.20
2017-07-20T18:13:48.186Z,80.60
2017-07-20T18:16:15.729Z,80.90
2017-07-20T18:18:43.226Z,80.90
2017-07-20T18:21:10.721Z,80.60
2017-07-20T18:23:38.240Z,81.00
2017-07-20T18:26:06.512Z,81.50
2017-07-20T18:28:34.064Z,81.50
2017-07-20T18:31:01.593Z,81.30
2017-07-20T18:33:29.120Z,80.90
2017-07-20T18:35:56.618Z,80.90
2017-07-20T18:38:24.146Z,81.00
2017-07-20T18:40:51.645Z,81.30
2017-07-20T18:43:19.143Z,81.10
2017-07-20T18:45:46.643Z,80.10
2017-07-20T18:48:14.389Z,79.80
2017-07-20T18:50:41.999Z,80.40
2017-07-20T18:53:09.531Z,79.80
2017-07-20T18:55:37.056Z,79.90
2017-07-20T18:58:04.573Z,79.00
2017-07-20T19:00:32.088Z,77.00
2017-07-20T19:02:59.600Z,76.30
2017-07-20T19:05:27.154Z,77.10
2017-07-20T19:07:54.668Z,78.10
2017-07-20T19:10:22.211Z,78.90
2017-07-20T19:12:49.741Z,78.00
2017-07-20T19:15:17.305Z,76.30
2017-07-20T19:17:45.574Z,77.40
2017-07-20T19:20:13.100Z,76.50
2017-07-20T19:22:40.627Z,75.70
2017-07-20T19:25:08.146Z,75.10
2017-07-20T19:27:35.654Z,75.70
2017-07-20T19:30:03.171Z,75.90
2017-07-20T19:32:30.685Z,75.70
2017-07-20T19:34:58.183Z,75.40
2017-07-20T19:37:25.697Z,74.70
2017-07-20T19:39:53.224Z,74.90
2017-07-20T19:42:20.771Z,74.30
2017-07-20T19:44:48.323Z,74.50
2017-07-20T19:47:15.858Z,74.60
2017-07-20T19:49:43.390Z,74.80
2017-07-20T19:52:10.924Z,75.60
2017-07-20T19:54:38.464Z,76.00
2017-07-20T19:57:05.978Z,76.80
2017-07-20T19:59:33.506Z,77.00
2017-07-20T20:02:01.165Z,77.30
2017-07-20T20:04:28.665Z,77.60
2017-07-20T20:09:49.573Z,78.30
2017-07-20T20:12:17.108Z,78.80
2017-07-20T20:14:45.584Z,80.60
2017-07-20T20:17:13.125Z,79.60
2017-07-20T20:19:40.616Z,79.90
2017-07-20T20:22:08.139Z,80.20
2017-07-20T20:24:35.633Z,80.70
2017-07-20T20:27:03.138Z,81.20
2017-07-20T20:29:30.661Z,81.30
2017-07-20T20:31:58.175Z,82.10
2017-07-20T20:34:25.690Z,82.50
2017-07-20T20:36:53.959Z,83.70
2017-07-20T20:39:22.249Z,84.30
2017-07-20T20:41:50.516Z,84.90
2017-07-20T20:44:18.790Z,85.20
2017-07-20T20:46:47.091Z,85.70
2017-07-20T20:49:14.594Z,85.50
2017-07-20T20:51:42.166Z,86.20
2017-07-20T20:54:09.694Z,86.60
2017-07-20T20:56:37.212Z,87.00
2017-07-20T20:59:04.717Z,87.50
2017-07-20T21:01:33.112Z,88.00
2017-07-20T21:04:00.616Z,88.40
2017-07-20T21:06:28.107Z,89.00
2017-07-20T21:08:55.615Z,89.60
2017-07-20T21:11:23.131Z,90.00
2017-07-20T21:13:50.637Z,90.20
2017-07-20T21:16:18.140Z,90.50
2017-07-20T21:18:45.648Z,90.70
2017-07-20T21:21:13.149Z,90.90
2017-07-20T21:23:40.656Z,91.00
2017-07-20T21:26:08.263Z,91.10
2017-07-20T21:28:35.777Z,91.20
2017-07-20T21:31:03.323Z,91.40
2017-07-20T21:33:30.838Z,91.60
2017-07-20T21:35:58.345Z,91.60
2017-07-20T21:38:26.165Z,91.70
2017-07-20T21:40:53.663Z,91.90
2017-07-20T21:43:21.209Z,91.90
2017-07-20T21:45:48.724Z,91.80
2017-07-20T21:48:17.003Z,92.10
2017-07-20T21:50:45.255Z,92.20
2017-07-20T21:53:12.772Z,92.60
2017-07-20T21:55:40.289Z,92.20
2017-07-20T21:58:07.869Z,92.20
2017-07-20T22:00:35.456Z,92.30
2017-07-20T22:03:02.966Z,92.30
2017-07-20T22:05:30.491Z,92.30
2017-07-20T22:07:57.984Z,92.50
2017-07-20T22:10:25.509Z,92.50
2017-07-20T22:12:53.035Z,92.60
2017-07-20T22:15:20.535Z,92.60
2017-07-20T22:17:48.088Z,92.80
2017-07-20T22:20:15.592Z,92.90
2017-07-20T22:22:43.910Z,93.30
2017-07-20T22:25:11.463Z,93.20
2017-07-20T22:27:38.962Z,93.40
2017-07-20T22:30:06.516Z,93.40
2017-07-20T22:32:34.048Z,93.50
2017-07-20T22:35:01.811Z,93.50
2017-07-20T22:37:29.360Z,93.70
2017-07-20T22:39:56.871Z,93.80
2017-07-20T22:42:24.380Z,93.80
2017-07-20T22:44:51.898Z,93.80
2017-07-20T22:47:19.422Z,93.90
2017-07-20T22:49:46.991Z,94.00
2017-07-20T22:52:14.526Z,94.00
2017-07-20T22:54:42.112Z,94.10
2017-07-20T22:57:09.629Z,94.20
2017-07-20T22:59:37.172Z,94.40
2017-07-20T23:02:05.529Z,94.70
2017-07-20T23:04:33.049Z,94.70
2017-07-20T23:07:00.584Z,94.80
2017-07-20T23:09:28.089Z,94.80
2017-07-20T23:11:55.600Z,94.80
2017-07-20T23:14:23.129Z,94.90
2017-07-20T23:16:50.640Z,95.00
2017-07-20T23:19:18.204Z,95.10
2017-07-20T23:21:45.704Z,95.20
2017-07-20T23:24:13.211Z,95.50
2017-07-20T23:26:40.721Z,95.50
2017-07-20T23:29:08.259Z,95.50
2017-07-20T23:31:35.766Z,95.50
2017-07-20T23:34:04.046Z,95.70
2017-07-20T23:36:32.329Z,95.70
2017-07-20T23:38:59.859Z,95.70
2017-07-20T23:41:27.361Z,95.70
2017-07-20T23:52:32.571Z,96.30
2017-07-20T23:55:00.077Z,96.50
2017-07-20T23:57:27.569Z,96.60
2017-07-20T23:59:55.094Z,96.70
